EDT,Max TemperatureF,Mean TemperatureF,Min TemperatureF,Max Dew PointF,MeanDew PointF,Min DewpointF,Max Humidity, Mean Humidity, Min Humidity, Max Sea Level PressureIn, Mean Sea Level PressureIn, Min Sea Level PressureIn, Max VisibilityMiles, Mean VisibilityMiles, Min VisibilityMiles, Max Wind SpeedMPH, Mean Wind SpeedMPH, Max Gust SpeedMPH,PrecipitationIn, CloudCover, Events, WindDirDegrees
2013-5-1,68,63,58,57,54,52,90,74,58,30.23,30.18,30.12,10,10,8,20,12,26,0.00,5,,78
2013-5-2,64,61,57,56,55,53,93,86,78,30.25,30.20,30.15,10,6,2,18,12,25,0.01,8,Rain,72
2013-5-3,59,58,56,55,54,51,93,87,80,30.17,30.09,30.01,10,5,1,22,14,28,0.16,8,Rain,81
2013-5-4,56,52,48,53,49,45,96,87,77,30.00,29.94,29.87,10,3,1,23,15,33,2.03,8,Rain,78
2013-5-5,61,55,48,54,52,46,93,86,78,29.88,29.83,29.76,10,5,1,22,10,32,1.63,8,Rain-Thunderstorm,74
2013-5-6,55,50,44,49,45,43,93,80,66,29.92,29.88,29.81,10,9,3,10,4,15,0.01,7,Rain,178
2013-5-7,67,58,49,51,48,47,93,71,48,29.97,29.92,29.87,10,7,3,17,6,22,0.16,5,Rain,4
2013-5-8,75,64,53,55,52,50,93,70,46,30.06,30.01,29.95,10,10,10,17,8,24,0.00,1,,264
2013-5-9,80,68,55,57,54,52,93,65,36,30.12,30.08,30.03,10,9,2,15,5,22,0.00,0,,264
2013-5-10,77,68,58,59,56,53,87,69,50,30.10,30.03,29.97,10,10,7,15,4,21,0.00,3,,246
2013-5-11,75,67,59,61,59,57,90,76,61,30.00,29.95,29.88,10,9,2,16,7,23,0.11,5,Rain,271
2013-5-12,68,60,52,58,42,30,87,59,30,30.09,30.01,29.92,10,10,10,20,10,31,0.00,0,,292
2013-5-13,68,56,44,36,32,26,70,46,22,30.23,30.16,30.09,10,10,10,18,7,25,0.00,0,,308
2013-5-14,77,62,46,52,44,36,76,55,34,30.27,30.20,30.12,10,10,10,15,5,20,0.00,0,,237
2013-5-15,85,73,60,55,53,50,78,55,31,30.15,30.09,30.02,10,10,10,16,9,22,0.00,0,,256
2013-5-16,81,71,61,59,56,54,84,63,42,30.10,30.04,29.99,10,10,9,13,5,16,0.00,0,,245
2013-5-17,80,71,61,59,56,47,90,60,30,30.11,30.07,30.03,10,10,6,10,3,15,0.02,1,Rain,200
2013-5-18,73,69,64,64,63,60,93,81,68,30.15,30.09,30.05,10,8,2,10,3,14,0.23,8,Rain,162
2013-5-19,69,66,63,66,63,57,100,94,87,30.15,30.09,30.03,10,5,1,16,5,25,3.06,7,Rain-Thunderstorm,110
2013-5-20,83,73,62,67,63,61,100,78,55,30.16,30.10,30.02,10,4,0,10,3,13,0.01,6,Fog,56
2013-5-21,87,78,68,67,65,59,93,67,40,30.07,30.01,29.93,10,8,3,10,4,15,T,3,Thunderstorm,206
2013-5-22,81,73,65,70,64,55,93,80,67,30.04,29.97,29.88,10,7,1,16,3,30,0.46,4,Rain-Thunderstorm,134
2013-5-23,82,74,65,65,61,52,93,68,42,29.99,29.96,29.91,10,7,2,20,9,28,0.18,5,Rain-Thunderstorm,250
2013-5-24,75,67,58,52,45,38,72,50,27,30.21,30.10,29.98,10,10,10,22,11,30,0.00,0,,318
2013-5-25,77,62,47,45,41,37,71,50,29,30.32,30.24,30.19,10,10,10,16,5,20,0.00,0,,258
2013-5-26,80,68,56,50,45,40,72,51,30,30.28,30.21,30.17,10,10,10,13,4,18,0.00,0,,319
2013-5-27,84,71,58,58,54,50,80,59,37,30.25,30.18,30.12,10,10,10,9,4,26,0.00,1,,108
2013-5-28,83,73,63,60,58,55,78,59,40,30.22,30.17,30.14,10,10,10,13,4,30,0.00,1,,160
2013-5-29,81,71,61,62,60,57,84,68,51,30.28,30.21,30.16,10,10,4,13,4,18,0.00,3,,123
2013-5-30,82,73,64,64,63,60,93,72,51,30.31,30.24,30.15,10,7,1,12,6,16,0.00,5,,95
2013-5-31,83,75,66,64,63,60,93,70,47,30.27,30.18,30.10,10,10,8,13,4,21,0.00,4,,120